createdAt,value
2018-01-27T00:00:38.671Z,7.46
2018-01-27T00:03:06.664Z,7.47
2018-01-27T00:05:32.599Z,7.50
2018-01-27T00:07:58.519Z,7.55
2018-01-27T00:10:24.485Z,7.57
2018-01-27T00:12:50.457Z,7.56
2018-01-27T00:15:19.657Z,7.58
2018-01-27T00:17:45.578Z,7.64
2018-01-27T00:20:13.508Z,7.67
2018-01-27T00:22:50.796Z,7.66
2018-01-27T00:25:16.745Z,7.55
2018-01-27T00:27:42.646Z,7.55
2018-01-27T00:30:08.566Z,7.58
2018-01-27T00:32:34.503Z,7.58
2018-01-27T00:35:00.399Z,7.62
2018-01-27T00:37:26.348Z,7.51
2018-01-27T00:39:52.282Z,7.55
2018-01-27T00:42:18.233Z,7.43
2018-01-27T00:44:44.209Z,7.49
2018-01-27T00:47:10.135Z,7.49
2018-01-27T00:49:36.089Z,7.48
2018-01-27T00:52:03.993Z,7.57
2018-01-27T00:54:29.915Z,7.60
2018-01-27T00:56:59.716Z,7.51
2018-01-27T00:59:25.632Z,7.52
2018-01-27T01:01:54.678Z,7.48
2018-01-27T01:04:20.579Z,7.44
2018-01-27T01:06:50.571Z,7.40
2018-01-27T01:09:16.502Z,7.43
2018-01-27T01:11:43.348Z,7.43
2018-01-27T01:14:09.328Z,7.40
2018-01-27T01:16:38.820Z,7.35
2018-01-27T01:19:04.778Z,7.30
2018-01-27T01:21:30.728Z,7.14
2018-01-27T01:23:56.660Z,7.16
2018-01-27T01:26:22.583Z,7.21
2018-01-27T01:28:49.261Z,7.26
2018-01-27T01:31:15.187Z,7.32
2018-01-27T01:33:43.928Z,7.30
2018-01-27T01:36:09.956Z,7.31
2018-01-27T01:38:39.314Z,7.37
2018-01-27T01:41:05.226Z,7.33
2018-01-27T01:46:34.536Z,7.26
2018-01-27T01:49:12.898Z,7.21
2018-01-27T01:51:38.837Z,7.23
2018-01-27T01:54:04.800Z,7.31
2018-01-27T01:56:30.733Z,7.33
2018-01-27T01:58:56.675Z,7.31
2018-01-27T02:01:22.586Z,7.41
2018-01-27T02:03:48.502Z,7.48
2018-01-27T02:06:14.445Z,7.54
2018-01-27T02:08:40.379Z,7.49
2018-01-27T02:11:06.315Z,7.50
2018-01-27T02:13:32.237Z,7.58
2018-01-27T02:15:58.188Z,7.63
2018-01-27T02:18:24.117Z,7.61
2018-01-27T02:20:50.035Z,7.60
2018-01-27T02:23:15.974Z,7.63
2018-01-27T02:25:41.886Z,7.67
2018-01-27T02:28:07.824Z,7.59
2018-01-27T02:30:33.723Z,7.59
2018-01-27T02:32:59.680Z,7.48
2018-01-27T02:35:25.629Z,7.51
2018-01-27T02:37:51.533Z,7.47
2018-01-27T02:40:17.456Z,7.44
2018-01-27T02:42:43.393Z,7.46
2018-01-27T02:45:09.326Z,7.42
2018-01-27T02:47:35.465Z,7.42
2018-01-27T02:50:01.430Z,7.49
2018-01-27T02:52:27.368Z,7.45
2018-01-27T02:54:53.299Z,7.38
2018-01-27T02:57:19.226Z,7.42
2018-01-27T02:59:45.181Z,7.43
2018-01-27T03:02:11.126Z,7.42
2018-01-27T03:04:37.069Z,7.20
2018-01-27T03:07:02.977Z,7.24
2018-01-27T03:09:28.892Z,7.24
2018-01-27T03:11:54.868Z,7.21
2018-01-27T03:14:20.793Z,7.29
2018-01-27T03:16:46.756Z,7.26
2018-01-27T03:19:12.685Z,7.37
2018-01-27T03:21:38.620Z,7.37
2018-01-27T03:24:04.524Z,7.44
2018-01-27T03:26:30.467Z,7.54
2018-01-27T03:28:56.380Z,7.49
2018-01-27T03:31:22.324Z,7.52
2018-01-27T03:33:49.255Z,7.57
2018-01-27T03:36:15.165Z,7.58
2018-01-27T03:38:43.822Z,7.54
2018-01-27T03:41:09.753Z,7.54
2018-01-27T03:43:38.505Z,7.53
2018-01-27T03:46:04.419Z,7.51
2018-01-27T03:48:30.360Z,7.44
2018-01-27T03:50:56.304Z,7.39
2018-01-27T03:53:22.245Z,7.46
2018-01-27T03:55:51.331Z,7.53
2018-01-27T03:58:17.259Z,7.56
2018-01-27T04:00:45.953Z,7.49
2018-01-27T04:03:11.879Z,7.49
2018-01-27T04:05:41.343Z,7.52
2018-01-27T04:08:07.246Z,7.59
2018-01-27T04:10:35.022Z,7.59
2018-01-27T04:13:00.961Z,7.60
2018-01-27T04:15:30.568Z,7.62
2018-01-27T04:17:56.494Z,7.63
2018-01-27T04:20:24.071Z,7.62
2018-01-27T04:22:50.001Z,7.54
2018-01-27T04:25:15.920Z,7.60
2018-01-27T04:27:41.878Z,7.58
2018-01-27T04:30:07.836Z,7.62
2018-01-27T04:32:36.915Z,7.56
2018-01-27T04:35:02.860Z,7.60
2018-01-27T04:37:32.240Z,7.35
2018-01-27T04:39:58.160Z,7.31
2018-01-27T04:42:25.724Z,7.41
2018-01-27T04:44:51.658Z,7.50
2018-01-27T04:47:19.965Z,7.48
2018-01-27T04:49:45.898Z,7.54
2018-01-27T04:52:15.464Z,7.50
2018-01-27T04:54:41.407Z,7.36
2018-01-27T04:57:10.150Z,7.31
2018-01-27T04:59:36.097Z,7.40
2018-01-27T05:02:02.027Z,7.42
2018-01-27T05:04:27.952Z,7.50
2018-01-27T05:06:53.896Z,7.53
2018-01-27T05:09:21.240Z,7.50
2018-01-27T05:11:47.166Z,7.53
2018-01-27T05:14:16.402Z,7.52
2018-01-27T05:16:42.336Z,7.54
2018-01-27T05:19:10.612Z,7.55
2018-01-27T05:21:36.534Z,7.51
2018-01-27T05:24:06.097Z,7.50
2018-01-27T05:26:31.999Z,7.51
2018-01-27T05:28:59.855Z,7.53
2018-01-27T05:31:25.795Z,7.58
2018-01-27T05:33:56.119Z,7.62
2018-01-27T05:36:22.040Z,7.52
2018-01-27T05:38:48.046Z,7.41
2018-01-27T05:41:13.959Z,7.45
2018-01-27T05:43:39.894Z,7.49
2018-01-27T05:46:06.527Z,7.49
2018-01-27T05:48:32.459Z,7.45
2018-01-27T05:51:01.406Z,7.33
2018-01-27T05:53:27.384Z,7.36
2018-01-27T05:55:56.791Z,7.44
2018-01-27T05:58:22.721Z,7.37
2018-01-27T06:00:50.601Z,7.37
2018-01-27T06:03:16.617Z,7.38
2018-01-27T06:05:46.482Z,7.37
2018-01-27T06:08:12.428Z,7.37
2018-01-27T06:10:41.757Z,7.42
2018-01-27T06:13:07.670Z,7.44
2018-01-27T06:15:33.607Z,7.44
2018-01-27T06:17:59.536Z,7.44
2018-01-27T06:20:25.497Z,7.47
2018-01-27T06:22:52.019Z,7.42
2018-01-27T06:25:17.936Z,7.46
2018-01-27T06:27:47.296Z,7.45
2018-01-27T06:30:13.226Z,7.45
2018-01-27T06:32:42.851Z,7.45
2018-01-27T06:35:08.792Z,7.29
2018-01-27T06:37:36.613Z,7.29
2018-01-27T06:40:02.597Z,7.35
2018-01-27T06:42:31.509Z,7.41
2018-01-27T06:44:57.481Z,7.36
2018-01-27T06:47:26.409Z,7.43
2018-01-27T06:49:52.377Z,7.34
2018-01-27T06:52:18.348Z,7.31
2018-01-27T06:54:44.276Z,7.37
2018-01-27T06:57:10.196Z,7.40
2018-01-27T06:59:38.157Z,7.37
2018-01-27T07:02:04.071Z,7.38
2018-01-27T07:04:31.894Z,7.32
2018-01-27T07:06:57.819Z,7.25
2018-01-27T07:09:26.578Z,7.20
2018-01-27T07:11:52.522Z,7.09
2018-01-27T07:14:21.856Z,7.04
2018-01-27T07:16:47.798Z,6.97
2018-01-27T07:19:17.169Z,6.95
2018-01-27T07:21:43.104Z,7.06
2018-01-27T07:24:10.648Z,6.84
2018-01-27T07:26:36.604Z,6.75
2018-01-27T07:29:02.544Z,6.83
2018-01-27T07:31:28.460Z,6.92
2018-01-27T07:33:54.384Z,6.88
2018-01-27T07:36:22.285Z,6.92
2018-01-27T07:38:48.205Z,6.99
2018-01-27T07:41:17.608Z,7.10
2018-01-27T07:43:43.550Z,7.13
2018-01-27T07:46:11.996Z,7.22
2018-01-27T07:48:37.908Z,7.27
2018-01-27T07:51:06.188Z,7.33
2018-01-27T07:53:32.119Z,7.17
2018-01-27T07:56:01.612Z,7.19
2018-01-27T07:58:27.568Z,7.20
2018-01-27T08:00:56.712Z,7.28
2018-01-27T08:03:22.635Z,7.06
2018-01-27T08:05:48.566Z,7.16
2018-01-27T08:08:14.497Z,7.23
2018-01-27T08:10:40.441Z,7.30
2018-01-27T08:13:09.510Z,7.44
2018-01-27T08:15:35.428Z,7.50
2018-01-27T08:18:02.492Z,7.46
2018-01-27T08:20:28.420Z,7.48
2018-01-27T08:22:58.168Z,7.54
2018-01-27T08:25:24.107Z,7.59
2018-01-27T08:27:53.346Z,7.64
2018-01-27T08:30:19.261Z,7.65
2018-01-27T08:32:47.149Z,7.72
2018-01-27T08:35:13.088Z,7.78
2018-01-27T08:37:42.601Z,7.78
2018-01-27T08:40:08.545Z,7.85
2018-01-27T08:42:34.461Z,7.91
2018-01-27T08:45:00.407Z,8.08
2018-01-27T08:47:28.229Z,8.00
2018-01-27T08:49:54.222Z,8.10
2018-01-27T08:52:20.146Z,8.13
2018-01-27T08:54:48.019Z,8.18
2018-01-27T08:57:13.945Z,8.21
2018-01-27T08:59:43.777Z,8.35
2018-01-27T09:02:09.764Z,8.44
2018-01-27T09:04:37.257Z,8.51
2018-01-27T09:07:03.197Z,8.39
2018-01-27T09:09:32.379Z,8.26
2018-01-27T09:11:58.315Z,8.33
2018-01-27T09:14:27.324Z,8.47
2018-01-27T09:16:53.282Z,8.67
2018-01-27T09:19:19.208Z,9.12
2018-01-27T09:21:45.166Z,10.09
2018-01-27T09:24:11.104Z,10.86
2018-01-27T09:26:38.509Z,11.33
2018-01-27T09:29:04.440Z,11.51
2018-01-27T09:31:34.114Z,11.37
2018-01-27T09:34:00.093Z,10.99
2018-01-27T09:36:27.811Z,10.47
2018-01-27T09:38:53.744Z,9.61
2018-01-27T09:41:22.119Z,8.98
2018-01-27T09:43:48.074Z,8.64
2018-01-27T09:46:18.263Z,8.48
2018-01-27T09:48:44.191Z,8.47
2018-01-27T09:51:11.812Z,8.60
2018-01-27T09:53:37.761Z,8.67
2018-01-27T09:56:03.677Z,8.79
2018-01-27T09:58:29.608Z,9.02
2018-01-27T10:00:55.546Z,9.22
2018-01-27T10:03:23.529Z,9.36
2018-01-27T10:05:49.486Z,9.32
2018-01-27T10:08:19.094Z,9.27
2018-01-27T10:10:45.033Z,9.04
2018-01-27T10:13:14.420Z,9.08
2018-01-27T10:15:40.348Z,9.27
2018-01-27T10:18:07.772Z,9.40
2018-01-27T10:20:33.717Z,9.52
2018-01-27T10:23:03.283Z,9.61
2018-01-27T10:25:29.216Z,9.28
2018-01-27T10:27:58.327Z,8.82
2018-01-27T10:30:24.264Z,8.60
2018-01-27T10:32:50.219Z,9.01
2018-01-27T10:35:16.127Z,9.72
2018-01-27T10:37:42.050Z,10.09
2018-01-27T10:40:09.605Z,10.36
2018-01-27T10:42:35.561Z,10.34
2018-01-27T10:45:04.140Z,10.04
2018-01-27T10:47:30.796Z,10.05
2018-01-27T10:49:58.540Z,10.21
2018-01-27T10:52:24.472Z,10.61
2018-01-27T10:54:53.714Z,11.90
2018-01-27T10:57:19.614Z,12.73
2018-01-27T10:59:47.355Z,13.03
2018-01-27T11:02:13.299Z,13.16
2018-01-27T11:04:42.299Z,12.88
2018-01-27T11:07:08.238Z,13.22
2018-01-27T11:09:34.185Z,13.98
2018-01-27T11:12:00.112Z,15.52
2018-01-27T11:14:26.029Z,16.76
2018-01-27T11:16:55.888Z,16.87
2018-01-27T11:19:21.799Z,15.93
2018-01-27T11:21:49.472Z,15.63
2018-01-27T11:24:15.435Z,16.05
2018-01-27T11:26:43.671Z,15.98
2018-01-27T11:29:09.588Z,15.96
2018-01-27T11:31:39.145Z,15.90
2018-01-27T11:34:05.091Z,16.76
2018-01-27T11:36:32.842Z,17.43
2018-01-27T11:38:58.787Z,17.49
2018-01-27T11:41:27.830Z,17.73
2018-01-27T11:43:53.808Z,17.90
2018-01-27T11:46:19.737Z,17.94
2018-01-27T11:48:45.671Z,17.83
2018-01-27T11:51:11.612Z,17.68
2018-01-27T11:53:40.144Z,17.37
2018-01-27T11:56:06.088Z,18.21
2018-01-27T11:58:33.977Z,18.78
2018-01-27T12:00:59.930Z,18.65
2018-01-27T12:03:29.433Z,18.35
2018-01-27T12:05:55.346Z,17.69
2018-01-27T12:08:25.193Z,17.01
2018-01-27T12:10:51.136Z,16.03
2018-01-27T12:13:18.369Z,15.52
2018-01-27T12:15:44.327Z,15.13
2018-01-27T12:18:13.345Z,14.75
2018-01-27T12:20:39.251Z,14.25
2018-01-27T12:23:05.271Z,13.91
2018-01-27T12:25:31.193Z,13.55
2018-01-27T12:27:57.128Z,13.44
2018-01-27T12:30:24.901Z,13.37
2018-01-27T12:32:50.822Z,13.29
2018-01-27T12:35:19.466Z,13.11
2018-01-27T12:37:45.388Z,12.31
2018-01-27T12:40:14.681Z,12.13
2018-01-27T12:42:40.652Z,12.05
2018-01-27T12:45:10.278Z,12.02
2018-01-27T12:47:37.878Z,11.63
2018-01-27T12:50:03.820Z,11.82
2018-01-27T12:52:29.770Z,11.88
2018-01-27T12:54:58.753Z,11.90
2018-01-27T12:57:24.689Z,11.77
2018-01-27T12:59:50.640Z,11.79
2018-01-27T13:02:16.555Z,11.70
2018-01-27T13:04:42.503Z,11.74
2018-01-27T13:07:11.806Z,11.75
2018-01-27T13:09:37.739Z,11.74
2018-01-27T13:12:04.985Z,11.83
2018-01-27T13:14:30.927Z,11.82
2018-01-27T13:17:00.205Z,11.81
2018-01-27T13:19:26.140Z,11.72
2018-01-27T13:21:55.565Z,11.76
2018-01-27T13:24:21.537Z,11.61
2018-01-27T13:26:48.954Z,11.55
2018-01-27T13:29:14.877Z,11.65
2018-01-27T13:31:44.536Z,11.47
2018-01-27T13:34:10.499Z,11.50
2018-01-27T13:36:36.400Z,11.57
2018-01-27T13:39:02.370Z,11.44
2018-01-27T13:41:28.324Z,11.51
2018-01-27T13:43:56.136Z,11.64
2018-01-27T13:46:22.086Z,12.08
2018-01-27T13:48:51.357Z,12.58
2018-01-27T13:51:17.322Z,13.00
2018-01-27T13:53:44.973Z,13.51
2018-01-27T13:56:10.924Z,13.95
2018-01-27T13:58:40.288Z,14.66
2018-01-27T14:01:06.221Z,14.42
2018-01-27T14:03:34.734Z,13.63
2018-01-27T14:06:00.669Z,13.67
2018-01-27T14:08:30.532Z,13.58
2018-01-27T14:10:56.634Z,13.92
2018-01-27T14:13:22.613Z,14.47
2018-01-27T14:15:48.533Z,14.81
2018-01-27T14:18:14.472Z,14.97
2018-01-27T14:20:40.553Z,15.23
2018-01-27T14:23:06.497Z,15.26
2018-01-27T14:25:35.320Z,15.20
2018-01-27T14:28:01.252Z,15.51
2018-01-27T14:30:30.579Z,15.78
2018-01-27T14:32:56.522Z,15.71
2018-01-27T14:35:26.092Z,15.66
2018-01-27T14:37:52.009Z,15.51
2018-01-27T14:40:19.534Z,15.19
2018-01-27T14:42:45.465Z,14.39
2018-01-27T14:45:14.025Z,14.26
2018-01-27T14:47:44.668Z,14.74
2018-01-27T14:50:10.613Z,14.87
2018-01-27T14:52:36.514Z,14.58
2018-01-27T14:55:02.502Z,14.84
2018-01-27T14:57:28.437Z,14.97
2018-01-27T14:59:54.357Z,14.42
2018-01-27T15:02:21.291Z,14.14
2018-01-27T15:04:47.243Z,13.97
2018-01-27T15:07:15.239Z,13.68
2018-01-27T15:09:41.164Z,13.78
2018-01-27T15:12:10.487Z,14.04
2018-01-27T15:14:36.411Z,14.32
2018-01-27T15:17:06.158Z,14.39
2018-01-27T15:19:32.096Z,14.31
2018-01-27T15:22:01.168Z,13.96
2018-01-27T15:24:27.064Z,13.70
2018-01-27T15:26:52.980Z,13.87
2018-01-27T15:29:18.929Z,14.06
2018-01-27T15:31:44.887Z,13.90
2018-01-27T15:34:11.655Z,13.78
2018-01-27T15:36:37.580Z,13.95
2018-01-27T15:39:06.772Z,13.73
2018-01-27T15:41:32.725Z,13.43
2018-01-27T15:44:00.388Z,13.18
2018-01-27T15:46:26.333Z,12.81
2018-01-27T15:48:56.083Z,12.20
2018-01-27T15:51:22.016Z,12.00
2018-01-27T15:53:51.137Z,11.76
2018-01-27T15:56:17.058Z,11.54
2018-01-27T15:58:44.751Z,11.31
2018-01-27T16:01:10.717Z,11.07
2018-01-27T16:03:36.676Z,10.83
2018-01-27T16:06:02.617Z,10.58
2018-01-27T16:08:28.562Z,10.37
2018-01-27T16:10:56.436Z,10.18
2018-01-27T16:13:22.346Z,10.00
2018-01-27T16:15:51.802Z,9.87
2018-01-27T16:18:21.452Z,9.86
2018-01-27T16:20:51.121Z,9.80
2018-01-27T16:23:17.067Z,9.79
2018-01-27T16:25:44.266Z,9.64
2018-01-27T16:28:10.192Z,9.56
2018-01-27T16:30:36.113Z,9.53
2018-01-27T16:33:02.056Z,9.44
2018-01-27T16:35:30.109Z,9.31
2018-01-27T16:37:56.093Z,9.24
2018-01-27T16:40:22.056Z,9.05
2018-01-27T16:42:48.012Z,8.94
2018-01-27T16:45:13.951Z,8.90
2018-01-27T16:47:43.663Z,8.93
2018-01-27T16:50:09.602Z,8.87
2018-01-27T16:52:35.586Z,8.83
2018-01-27T16:55:01.535Z,8.77
2018-01-27T16:57:27.827Z,8.72
2018-01-27T16:59:57.854Z,8.60
2018-01-27T17:02:26.926Z,7.52
2018-01-27T17:04:52.893Z,8.49
2018-01-27T17:07:22.278Z,8.40
2018-01-27T17:09:48.240Z,8.33
2018-01-27T17:12:16.038Z,8.29
2018-01-27T17:14:42.060Z,8.20
2018-01-27T17:17:08.049Z,8.10
2018-01-27T17:19:54.256Z,8.10
2018-01-27T17:22:20.232Z,8.02
2018-01-27T17:24:49.688Z,7.93
2018-01-27T17:27:15.624Z,8.02
2018-01-27T17:29:41.588Z,8.09
2018-01-27T17:32:07.559Z,8.05
2018-01-27T17:34:33.506Z,8.03
2018-01-27T17:36:59.468Z,8.02
2018-01-27T17:39:25.442Z,8.11
2018-01-27T17:41:51.504Z,8.11
2018-01-27T17:44:17.477Z,8.15
2018-01-27T17:46:43.436Z,8.11
2018-01-27T17:49:09.413Z,7.98
2018-01-27T17:51:35.409Z,7.88
2018-01-27T17:54:01.416Z,7.83
2018-01-27T17:56:27.367Z,7.83
2018-01-27T17:58:53.423Z,7.75
2018-01-27T18:01:19.386Z,7.75
2018-01-27T18:06:44.598Z,7.89
2018-01-27T18:09:10.559Z,7.91
2018-01-27T18:11:36.526Z,7.87
2018-01-27T18:14:02.511Z,7.86
2018-01-27T18:16:28.448Z,7.83
2018-01-27T18:18:54.476Z,7.83
2018-01-27T18:21:20.431Z,7.85
2018-01-27T18:23:46.399Z,7.86
2018-01-27T18:26:12.345Z,7.90
2018-01-27T18:28:38.532Z,7.82
2018-01-27T18:31:04.509Z,7.82
2018-01-27T18:33:30.458Z,7.84
2018-01-27T18:35:56.460Z,7.92
2018-01-27T18:38:22.408Z,7.88
2018-01-27T18:40:48.376Z,7.79
2018-01-27T18:43:14.382Z,7.70
2018-01-27T18:45:40.304Z,7.77
2018-01-27T18:48:06.288Z,7.84
2018-01-27T18:50:47.862Z,7.81
2018-01-27T18:53:13.844Z,7.77
2018-01-27T18:55:39.801Z,7.81
2018-01-27T18:58:05.777Z,7.71
2018-01-27T19:00:31.743Z,7.72
2018-01-27T19:02:57.749Z,7.73
2018-01-27T19:05:23.687Z,7.62
2018-01-27T19:07:49.605Z,7.49
2018-01-27T19:10:15.582Z,7.43
2018-01-27T19:12:41.566Z,7.41
2018-01-27T19:15:07.509Z,7.33
2018-01-27T19:17:33.473Z,7.26
2018-01-27T19:19:59.454Z,7.18
2018-01-27T19:22:25.472Z,7.04
2018-01-27T19:24:51.441Z,7.06
2018-01-27T19:27:21.052Z,7.06
2018-01-27T19:29:47.032Z,6.87
2018-01-27T19:32:33.228Z,6.83
2018-01-27T19:34:59.175Z,6.81
2018-01-27T19:37:25.159Z,6.82
2018-01-27T19:39:51.091Z,6.67
2018-01-27T19:42:17.078Z,6.60
2018-01-27T19:44:43.007Z,6.64
2018-01-27T19:47:08.962Z,6.64
2018-01-27T19:49:34.944Z,6.65
2018-01-27T19:52:00.946Z,6.72
2018-01-27T19:54:49.025Z,6.76
2018-01-27T19:57:15.000Z,6.82
2018-01-27T19:59:40.962Z,6.91
2018-01-27T20:02:06.943Z,6.98
2018-01-27T20:04:32.912Z,6.89
2018-01-27T20:06:58.853Z,6.84
2018-01-27T20:09:24.832Z,6.71
2018-01-27T20:11:52.441Z,6.31
2018-01-27T20:14:18.417Z,6.61
2018-01-27T20:16:44.382Z,6.56
2018-01-27T20:19:10.365Z,6.49
2018-01-27T20:21:36.300Z,6.51
2018-01-27T20:24:02.254Z,6.46
2018-01-27T20:26:28.217Z,6.42
2018-01-27T20:28:54.167Z,6.38
2018-01-27T20:31:20.144Z,6.33
2018-01-27T20:33:46.127Z,6.32
2018-01-27T20:36:12.100Z,6.25
2018-01-27T20:38:38.074Z,6.25
2018-01-27T20:41:04.021Z,6.16
2018-01-27T20:43:30.929Z,6.22
2018-01-27T20:45:56.866Z,6.18
2018-01-27T20:48:22.825Z,6.17
2018-01-27T20:50:48.832Z,6.14
2018-01-27T20:53:18.765Z,6.11
2018-01-27T20:55:46.070Z,6.04
2018-01-27T20:58:13.012Z,6.00
2018-01-27T21:00:39.020Z,5.97
2018-01-27T21:03:04.962Z,5.96
2018-01-27T21:05:31.061Z,5.86
2018-01-27T21:07:57.044Z,5.63
2018-01-27T21:10:25.978Z,5.50
2018-01-27T21:12:53.148Z,5.43
2018-01-27T21:15:19.106Z,5.46
2018-01-27T21:17:45.059Z,5.55
2018-01-27T21:20:14.144Z,5.49
2018-01-27T21:22:40.121Z,5.50
2018-01-27T21:25:09.118Z,5.49
2018-01-27T21:27:35.179Z,5.52
2018-01-27T21:30:03.419Z,5.51
2018-01-27T21:32:29.394Z,5.51
2018-01-27T21:34:55.360Z,5.45
2018-01-27T21:37:31.814Z,5.46
2018-01-27T21:39:57.788Z,5.47
2018-01-27T21:42:25.401Z,5.41
2018-01-27T21:44:51.375Z,5.31
2018-01-27T21:47:20.720Z,5.26
2018-01-27T21:49:46.653Z,5.20
2018-01-27T21:52:14.809Z,5.17
2018-01-27T21:54:40.777Z,5.19
2018-01-27T21:57:10.658Z,5.19
2018-01-27T21:59:43.540Z,4.82
2018-01-27T22:02:09.492Z,4.89
2018-01-27T22:04:35.423Z,5.02
2018-01-27T22:07:01.404Z,5.08
2018-01-27T22:09:27.398Z,5.14
2018-01-27T22:11:53.353Z,4.65
2018-01-27T22:14:19.336Z,5.04
2018-01-27T22:16:48.288Z,4.96
2018-01-27T22:19:14.245Z,4.80
2018-01-27T22:21:40.288Z,4.83
2018-01-27T22:24:06.245Z,4.89
2018-01-27T22:26:32.227Z,4.87
2018-01-27T22:29:01.704Z,4.78
2018-01-27T22:31:27.684Z,4.76
2018-01-27T22:33:54.549Z,4.71
2018-01-27T22:36:20.502Z,4.67
2018-01-27T22:38:49.947Z,4.65
2018-01-27T22:41:15.924Z,4.56
2018-01-27T22:43:45.239Z,4.49
2018-01-27T22:46:11.182Z,4.27
2018-01-27T22:48:38.934Z,4.28
2018-01-27T22:51:04.923Z,4.24
2018-01-27T22:53:34.228Z,4.15
2018-01-27T22:56:00.225Z,4.03
2018-01-27T22:58:26.272Z,3.97
2018-01-27T23:00:58.536Z,3.90
2018-01-27T23:03:24.589Z,3.90
2018-01-27T23:05:50.601Z,3.67
2018-01-27T23:08:16.610Z,3.75
2018-01-27T23:10:42.597Z,3.79
2018-01-27T23:13:08.610Z,3.89
2018-01-27T23:18:30.057Z,3.93
2018-01-27T23:20:55.984Z,3.93
2018-01-27T23:23:21.940Z,3.76
2018-01-27T23:25:47.843Z,3.64
2018-01-27T23:28:13.767Z,3.64
2018-01-27T23:30:39.749Z,3.57
2018-01-27T23:33:05.693Z,3.73
2018-01-27T23:35:31.675Z,3.87
2018-01-27T23:37:57.591Z,4.04
2018-01-27T23:40:23.513Z,3.98
2018-01-27T23:42:49.425Z,3.76
2018-01-27T23:45:15.397Z,3.72
2018-01-27T23:47:43.697Z,3.65
2018-01-27T23:50:09.705Z,3.54
2018-01-27T23:52:36.691Z,3.65
2018-01-27T23:55:04.346Z,3.67
2018-01-27T23:57:34.447Z,3.73
